Terminal Aerodrome Forecast
Issued by NWS Charleston, WV

Current Version | Previous Version | Graphics & Text | Print | Product List | Glossary On
Versions: 1 2 3 4 5 6 7 8 9 10 11 12 13 14 15 16 17 18 19 20 21 22 23 24
000
FTUS41 KRLX 291100
TAFPKB
TAF
KPKB 291128Z 2912/3012 00000KT P6SM BKN045
     FM291400 34004KT P6SM BKN025
     FM291600 30006KT P6SM SCT025 BKN045
     FM300100 00000KT P6SM SCT100
     FM300600 00000KT 6SM BR BKN150
     FM300800 00000KT 3SM BR SCT150
      AMD NOT SKED=

USA.gov is the U.S. government's official web portal to all federal, state and local government web resources and services.